Time;durP1;ratioP1;P1;durP2;ratioP2;P2;SDS_P1;SDS_P2;PMS_P1;PMS_P2;Temp;Humidity;BMP_temperature;BMP_pressure;BME280_temperature;BME280_humidity;BME280_pressure;Samples;Min_cycle;Max_cycle;Signal;HPM_P1;HPM_P2
2022/01/30 00:01:41;;;;;;;6.10;3.20;;;;;;;-0.40;82.25;95024.69;5033432;28;20184;-65
2022/01/30 00:04:07;;;;;;;5.27;3.27;;;;;;;-0.24;82.93;95013.28;5031629;28;20589;-63
2022/01/30 00:06:32;;;;;;;6.43;3.50;;;;;;;-0.09;82.92;95007.72;5015108;28;20569;-61
2022/01/30 00:08:58;;;;;;;6.43;3.43;;;;;;;0.04;82.55;95012.25;5032674;28;20265;-60
2022/01/30 00:11:24;;;;;;;8.30;3.70;;;;;;;0.18;81.86;95025.84;5031381;28;20216;-64
2022/01/30 00:13:50;;;;;;;6.13;3.43;;;;;;;0.07;80.25;95039.59;5014829;28;20246;-58
2022/01/30 00:16:18;;;;;;;7.40;3.63;;;;;;;0.31;78.79;95061.97;5032858;28;20190;-58
2022/01/30 00:19:01;;;;;;;5.83;3.60;;;;;;;0.31;80.11;95023.66;5030977;28;20293;-66
2022/01/30 00:24:08;;;;;;;4.80;3.40;;;;;;;0.23;80.36;95013.16;5032080;28;20201;-63
2022/01/30 00:26:36;;;;;;;5.20;3.30;;;;;;;-0.20;81.62;94979.81;5016766;28;20209;-63
2022/01/30 00:29:03;;;;;;;9.93;4.77;;;;;;;0.20;80.97;94996.59;5032183;28;20225;-64
2022/01/30 00:31:28;;;;;;;6.53;4.47;;;;;;;0.19;79.28;95004.97;5032575;28;20202;-63
2022/01/30 00:33:54;;;;;;;9.77;5.07;;;;;;;0.11;80.36;94991.13;5032031;28;20279;-65
2022/01/30 00:36:20;;;;;;;13.20;5.57;;;;;;;0.23;77.82;95028.97;5032010;28;20273;-59
2022/01/30 00:38:46;;;;;;;8.90;5.53;;;;;;;-0.06;78.18;94995.09;5031900;28;20293;-59
2022/01/30 00:41:12;;;;;;;13.67;5.90;;;;;;;-0.15;78.14;94992.16;5030796;28;20230;-66
2022/01/30 00:43:37;;;;;;;11.33;5.90;;;;;;;-0.13;78.21;95007.88;5031880;28;20616;-66
2022/01/30 00:46:03;;;;;;;12.93;6.37;;;;;;;-0.20;77.18;95011.47;5030811;28;20263;-64
2022/01/30 00:48:28;;;;;;;9.33;6.17;;;;;;;-0.37;77.03;95001.31;5032436;28;20200;-66
2022/01/30 00:51:00;;;;;;;10.97;5.70;;;;;;;-0.69;79.35;94954.25;5031957;28;20242;-62
2022/01/30 00:53:26;;;;;;;11.97;6.03;;;;;;;-0.70;80.55;94950.13;5031901;28;20218;-61
2022/01/30 00:55:52;;;;;;;12.10;6.07;;;;;;;-0.55;78.67;94987.84;5032091;28;20193;-58
2022/01/30 00:58:17;;;;;;;13.10;6.83;;;;;;;-0.69;78.10;94986.69;5031788;28;20201;-63
2022/01/30 01:00:42;;;;;;;11.03;5.67;;;;;;;-0.81;79.80;94954.72;5013853;28;20291;-61
2022/01/30 01:03:09;;;;;;;12.87;6.07;;;;;;;-0.81;79.82;94940.56;5031505;28;20205;-63
2022/01/30 01:05:36;;;;;;;13.07;6.00;;;;;;;-0.52;78.67;94954.44;5031342;28;20212;-63
2022/01/30 01:08:12;;;;;;;11.40;5.53;;;;;;;-0.48;78.84;94950.94;5031510;28;20224;-60
2022/01/30 01:10:57;;;;;;;11.00;5.83;;;;;;;-0.52;78.08;94962.75;5030488;28;20192;-65
2022/01/30 01:24:04;;;;;;;11.80;6.10;;;;;;;-0.94;80.07;94889.47;5030738;28;20214;-64
2022/01/30 01:26:31;;;;;;;20.53;7.37;;;;;;;-1.17;83.12;94844.63;5032037;28;20199;-58
2022/01/30 01:28:56;;;;;;;12.83;5.93;;;;;;;-0.97;82.31;94860.47;5031649;28;20303;-63
2022/01/30 01:31:23;;;;;;;14.33;5.73;;;;;;;-0.72;80.33;94899.47;5031973;28;20690;-58
2022/01/30 01:36:24;;;;;;;9.23;5.43;;;;;;;-0.96;81.71;94849.63;5031791;28;20184;-61
2022/01/30 01:38:49;;;;;;;9.40;5.60;;;;;;;-0.97;81.22;94852.97;5031594;28;20220;-63
2022/01/30 01:41:19;;;;;;;11.67;5.80;;;;;;;-0.94;81.41;94845.38;5031698;28;20234;-58
2022/01/30 01:43:45;;;;;;;10.13;5.83;;;;;;;-1.01;81.03;94853.16;5031150;28;20229;-63
2022/01/30 01:46:17;;;;;;;8.03;5.07;;;;;;;-1.07;79.83;94876.63;5031743;28;20275;-63
2022/01/30 01:48:45;;;;;;;11.23;5.17;;;;;;;-1.19;80.47;94862.13;5031039;28;20691;-64
2022/01/30 01:51:17;;;;;;;10.20;5.30;;;;;;;-1.09;80.04;94855.13;5031633;28;20569;-62
2022/01/30 01:53:47;;;;;;;8.30;4.93;;;;;;;-1.23;80.14;94858.09;5029617;28;20212;-57
2022/01/30 01:56:14;;;;;;;10.50;5.37;;;;;;;-1.32;80.70;94835.19;5031331;28;20646;-61
2022/01/30 01:58:40;;;;;;;16.27;5.63;;;;;;;-1.30;80.54;94845.94;5029909;28;20198;-61
2022/01/30 02:01:06;;;;;;;9.07;5.57;;;;;;;-1.35;80.16;94842.78;5031299;28;20547;-61
2022/01/30 02:03:35;;;;;;;7.70;4.70;;;;;;;-1.41;80.16;94841.31;5030938;28;20202;-62
2022/01/30 02:06:03;;;;;;;9.60;5.47;;;;;;;-1.56;80.60;94826.94;5031281;28;20203;-61
2022/01/30 02:08:37;;;;;;;9.63;5.27;;;;;;;-1.72;80.29;94821.66;5031075;28;20204;-64
2022/01/30 02:24:21;;;;;;;7.97;4.77;;;;;;;-2.26;84.45;94775.44;5030594;28;20864;-59
2022/01/30 02:26:47;;;;;;;9.60;5.20;;;;;;;-2.23;84.94;94755.41;5028587;28;20226;-63
2022/01/30 02:29:13;;;;;;;8.70;4.77;;;;;;;-2.19;85.27;94751.94;5030812;28;20736;-65
2022/01/30 02:31:40;;;;;;;8.43;5.73;;;;;;;-2.04;84.44;94773.84;5034869;28;20297;-61
2022/01/30 02:34:07;;;;;;;7.20;4.67;;;;;;;-2.02;83.30;94784.56;5032982;28;20633;-65
2022/01/30 02:36:32;;;;;;;8.40;4.73;;;;;;;-2.07;83.72;94772.25;5034399;28;20640;-66
2022/01/30 02:39:00;;;;;;;6.00;4.07;;;;;;;-2.11;83.88;94760.78;5000177;28;20708;-58
2022/01/30 02:41:25;;;;;;;9.93;4.23;;;;;;;-1.98;83.68;94761.19;5033022;28;20229;-63
2022/01/30 02:46:48;;;;;;;7.47;4.50;;;;;;;-1.90;82.71;94762.50;5003377;28;20210;-66
2022/01/30 02:52:00;;;;;;;9.37;4.50;;;;;;;-1.71;82.25;94765.16;5034658;28;20200;-59
2022/01/30 02:54:27;;;;;;;7.80;4.07;;;;;;;-1.85;82.84;94750.72;5040740;23;20231;-63
2022/01/30 02:56:53;;;;;;;10.67;5.00;;;;;;;-1.95;84.03;94738.66;5053948;28;20666;-63
2022/01/30 02:59:19;;;;;;;10.50;4.90;;;;;;;-1.88;83.86;94730.88;5053868;28;20592;-58
2022/01/30 03:01:45;;;;;;;7.57;4.10;;;;;;;-1.76;82.79;94757.06;5053798;28;20268;-62
2022/01/30 03:04:10;;;;;;;10.47;4.50;;;;;;;-1.56;81.91;94768.78;5053895;28;20690;-58
2022/01/30 03:06:37;;;;;;;10.43;5.10;;;;;;;-1.58;81.52;94765.53;5053898;28;20654;-67
2022/01/30 03:09:05;;;;;;;7.30;4.70;;;;;;;-1.73;81.84;94750.28;5053474;28;20207;-63
2022/01/30 03:11:31;;;;;;;7.87;4.60;;;;;;;-1.77;83.24;94725.53;5035549;28;20319;-67
2022/01/30 03:13:57;;;;;;;13.83;5.20;;;;;;;-1.95;84.35;94716.22;5053750;28;20208;-64
2022/01/30 03:16:22;;;;;;;9.87;4.40;;;;;;;-1.84;83.18;94732.41;5053735;28;20183;-64
2022/01/30 03:18:48;;;;;;;8.70;4.73;;;;;;;-1.90;83.44;94720.19;5053800;28;20212;-59
2022/01/30 03:21:14;;;;;;;10.17;5.00;;;;;;;-1.88;84.30;94707.69;5035513;28;20207;-59
2022/01/30 03:23:40;;;;;;;9.37;4.70;;;;;;;-1.84;83.98;94732.41;5055634;23;20291;-59
2022/01/30 03:26:07;;;;;;;6.93;4.63;;;;;;;-1.72;83.17;94749.41;5053187;28;20266;-64
2022/01/30 03:28:33;;;;;;;6.13;4.73;;;;;;;-1.53;80.88;94773.66;5053363;28;20223;-59
2022/01/30 03:31:03;;;;;;;9.93;4.80;;;;;;;-1.62;81.35;94756.56;5053161;28;20325;-64
2022/01/30 03:33:29;;;;;;;9.00;4.73;;;;;;;-1.72;81.79;94759.38;5057589;23;20290;-64
2022/01/30 03:35:55;;;;;;;8.80;4.57;;;;;;;-1.62;81.29;94767.34;5053230;28;20186;-66
2022/01/30 03:38:21;;;;;;;8.27;4.20;;;;;;;-1.79;82.77;94738.06;5053042;28;20674;-61
2022/01/30 03:40:48;;;;;;;12.03;5.23;;;;;;;-1.79;83.11;94740.53;5034920;28;20687;-64
2022/01/30 03:43:13;;;;;;;9.57;5.03;;;;;;;-1.68;82.11;94755.09;5052592;28;20206;-65
2022/01/30 03:45:39;;;;;;;9.57;4.77;;;;;;;-1.59;81.78;94758.91;5052887;28;20176;-64
2022/01/30 03:48:06;;;;;;;12.43;5.43;;;;;;;-1.62;82.16;94749.91;5053170;28;20239;-64
2022/01/30 03:50:31;;;;;;;9.50;4.87;;;;;;;-1.47;81.41;94760.97;5052871;28;20282;-59
2022/01/30 03:52:57;;;;;;;8.07;5.13;;;;;;;-1.49;82.16;94761.03;5034665;28;20313;-58
2022/01/30 03:55:24;;;;;;;9.47;5.00;;;;;;;-1.60;82.53;94752.34;5034724;28;20182;-60
2022/01/30 03:57:50;;;;;;;7.67;4.50;;;;;;;-1.55;82.48;94747.97;5052858;28;20238;-64
2022/01/30 04:00:16;;;;;;;9.73;5.30;;;;;;;-1.55;81.87;94747.97;5034422;28;20202;-61
2022/01/30 04:02:42;;;;;;;9.73;5.50;;;;;;;-1.65;82.68;94731.75;5052517;28;20282;-64
2022/01/30 04:05:08;;;;;;;7.93;4.90;;;;;;;-1.64;83.47;94726.72;5052245;28;20209;-61
2022/01/30 04:07:35;;;;;;;11.17;5.63;;;;;;;-1.55;82.92;94738.00;5052335;28;20175;-65
2022/01/30 04:10:01;;;;;;;11.93;5.53;;;;;;;-1.62;83.07;94729.97;5052550;28;20593;-62
2022/01/30 04:12:27;;;;;;;9.47;5.00;;;;;;;-1.65;82.83;94724.25;5034164;28;20238;-58
2022/01/30 04:14:53;;;;;;;11.73;5.27;;;;;;;-1.78;83.27;94717.25;5034406;28;20183;-64
2022/01/30 04:17:19;;;;;;;13.40;5.47;;;;;;;-1.71;82.70;94725.31;5052541;28;20187;-60
2022/01/30 04:19:45;;;;;;;7.97;4.93;;;;;;;-1.70;82.36;94732.72;5051818;28;20326;-65
2022/01/30 04:22:11;;;;;;;7.87;4.60;;;;;;;-1.54;81.58;94747.94;5052319;28;20194;-65
2022/01/30 04:24:37;;;;;;;11.03;4.80;;;;;;;-1.53;82.10;94713.84;5052021;28;20555;-65
2022/01/30 04:27:03;;;;;;;13.00;5.00;;;;;;;-1.61;81.91;94715.81;5052118;28;20175;-65
2022/01/30 04:29:29;;;;;;;12.47;5.27;;;;;;;-1.85;82.44;94685.97;5052500;28;20204;-59
2022/01/30 04:31:54;;;;;;;7.67;5.10;;;;;;;-1.99;82.61;94673.22;5034031;28;20186;-61
2022/01/30 04:34:20;;;;;;;9.93;5.00;;;;;;;-2.36;83.32;94644.72;5052415;28;20604;-66
2022/01/30 04:58:19;;;;;;;8.83;4.23;;;;;;;-2.73;86.69;94605.38;5051866;28;20220;-63
2022/01/30 05:06:02;;;;;;;9.17;4.20;;;;;;;-2.41;86.38;94636.59;5051509;28;20566;-61
2022/01/30 05:08:28;;;;;;;7.33;4.20;;;;;;;-2.37;86.41;94638.91;5051707;28;20296;-58
2022/01/30 05:10:54;;;;;;;7.70;4.53;;;;;;;-2.12;85.73;94643.84;5051341;28;20178;-65
2022/01/30 05:13:24;;;;;;;7.43;4.20;;;;;;;-1.97;83.93;94656.53;5033100;28;20649;-59
2022/01/30 05:15:50;;;;;;;11.40;4.90;;;;;;;-2.13;83.33;94638.03;5033289;28;20187;-64
2022/01/30 05:18:24;;;;;;;9.30;4.73;;;;;;;-2.28;83.70;94618.66;5033435;28;20214;-57
2022/01/30 05:20:50;;;;;;;9.43;4.13;;;;;;;-2.39;84.30;94590.88;5051355;28;20196;-58
2022/01/30 05:23:17;;;;;;;9.60;4.33;;;;;;;-2.38;85.06;94581.75;5033405;28;20333;-66
2022/01/30 05:25:44;;;;;;;11.97;5.17;;;;;;;-2.33;84.60;94570.75;5033257;28;20182;-64
2022/01/30 05:28:10;;;;;;;8.87;4.33;;;;;;;-2.40;84.67;94571.03;5051270;28;20661;-59
2022/01/30 05:30:37;;;;;;;8.53;4.90;;;;;;;-2.38;85.62;94547.69;5051082;28;20246;-64
2022/01/30 05:33:03;;;;;;;7.03;3.77;;;;;;;-2.41;86.52;94530.41;5050889;28;20211;-64
2022/01/30 05:35:29;;;;;;;10.63;4.53;;;;;;;-2.22;84.75;94582.81;5051278;28;20182;-64
2022/01/30 05:37:55;;;;;;;6.33;3.97;;;;;;;-2.14;84.61;94581.63;5033048;28;20213;-65
2022/01/30 05:40:23;;;;;;;7.63;4.30;;;;;;;-2.04;84.61;94592.09;5032940;28;20294;-60
2022/01/30 05:42:48;;;;;;;9.43;5.13;;;;;;;-2.03;84.04;94591.19;5050910;28;20678;-58
2022/01/30 05:45:20;;;;;;;8.57;4.50;;;;;;;-1.76;83.20;94625.03;5033057;28;20188;-63
2022/01/30 05:47:54;;;;;;;8.80;4.73;;;;;;;-1.88;85.82;94598.09;5033125;28;20687;-64
2022/01/30 05:50:20;;;;;;;12.33;5.27;;;;;;;-1.95;86.47;94612.47;5032918;28;20187;-63
2022/01/30 05:52:46;;;;;;;9.50;4.67;;;;;;;-1.39;87.11;94616.94;5051144;28;20213;-65
2022/01/30 05:55:11;;;;;;;10.00;5.03;;;;;;;-1.19;82.74;94680.09;5050996;28;20176;-64
2022/01/30 05:57:36;;;;;;;9.33;4.43;;;;;;;-1.18;81.35;94680.91;5050710;28;20245;-65
2022/01/30 06:00:05;;;;;;;9.83;4.70;;;;;;;-1.22;81.93;94674.44;5050966;28;20236;-66
2022/01/30 06:02:31;;;;;;;8.50;4.90;;;;;;;-1.26;81.58;94660.47;5032869;28;20197;-65
2022/01/30 06:04:57;;;;;;;13.53;5.40;;;;;;;-1.34;81.55;94650.78;5051984;28;20189;-64
2022/01/30 06:07:28;;;;;;;8.70;4.63;;;;;;;-1.40;81.78;94637.75;5037144;28;20175;-64
2022/01/30 06:09:53;;;;;;;10.07;5.03;;;;;;;-1.35;81.95;94636.69;5055058;28;20649;-66
2022/01/30 06:12:18;;;;;;;11.67;5.73;;;;;;;-1.37;82.20;94635.94;5054612;28;20179;-61
2022/01/30 06:14:45;;;;;;;8.87;4.90;;;;;;;-1.24;81.39;94648.75;5055016;28;20749;-64
2022/01/30 06:17:11;;;;;;;10.93;5.60;;;;;;;-1.17;81.33;94637.66;5054503;28;20186;-61
2022/01/30 06:19:36;;;;;;;11.13;5.60;;;;;;;-1.17;80.54;94627.69;5054868;28;20214;-61
2022/01/30 06:22:03;;;;;;;10.40;5.40;;;;;;;-1.51;81.02;94602.47;5055291;28;20178;-63
2022/01/30 06:24:28;;;;;;;11.57;5.33;;;;;;;-1.55;82.20;94586.81;5036506;28;20823;-65
2022/01/30 06:26:54;;;;;;;12.97;5.90;;;;;;;-1.76;84.19;94528.69;5019935;28;20278;-65
2022/01/30 06:29:19;;;;;;;14.23;5.93;;;;;;;-1.88;85.81;94526.69;5054178;28;20290;-58
2022/01/30 06:31:45;;;;;;;10.87;5.43;;;;;;;-1.72;85.59;94540.16;5041377;23;20222;-65
2022/01/30 06:34:10;;;;;;;8.93;5.50;;;;;;;-1.48;84.15;94572.44;5054475;28;20192;-64
2022/01/30 06:36:35;;;;;;;9.10;5.33;;;;;;;-1.47;84.31;94559.09;5055029;28;20180;-65
2022/01/30 06:39:01;;;;;;;11.20;5.07;;;;;;;-1.45;83.47;94568.16;5036320;28;20726;-58
2022/01/30 06:41:26;;;;;;;8.63;5.27;;;;;;;-1.66;85.34;94525.84;5054687;28;20214;-59
2022/01/30 06:43:52;;;;;;;11.17;4.97;;;;;;;-1.50;83.54;94555.06;5054394;28;20200;-62
2022/01/30 06:46:17;;;;;;;10.63;5.23;;;;;;;-1.54;83.33;94582.66;5054544;28;20191;-66
2022/01/30 06:48:43;;;;;;;10.67;4.73;;;;;;;-1.71;85.23;94551.75;5054027;28;20205;-62
2022/01/30 06:51:08;;;;;;;9.63;5.23;;;;;;;-1.64;83.65;94598.84;5054474;28;20191;-64
2022/01/30 06:53:34;;;;;;;8.10;4.97;;;;;;;-1.70;84.96;94585.72;5035968;28;20214;-58
2022/01/30 06:55:59;;;;;;;8.87;5.03;;;;;;;-1.43;84.11;94588.00;5053814;28;20270;-62
2022/01/30 06:58:24;;;;;;;10.77;4.63;;;;;;;-1.27;84.30;94571.59;5054096;28;20223;-64
2022/01/30 07:00:50;;;;;;;11.93;6.30;;;;;;;-1.34;85.73;94551.09;5035729;28;20242;-64
2022/01/30 07:03:16;;;;;;;9.40;5.57;;;;;;;-1.18;83.52;94577.00;5035810;28;20209;-59
2022/01/30 07:05:41;;;;;;;14.73;6.47;;;;;;;-1.13;83.23;94580.13;5035831;28;20223;-58
2022/01/30 07:08:07;;;;;;;10.50;6.00;;;;;;;-1.05;82.94;94578.13;5035537;28;20209;-58
2022/01/30 07:10:32;;;;;;;19.33;7.97;;;;;;;-1.02;82.61;94580.50;5053919;28;20278;-58
2022/01/30 07:12:58;;;;;;;14.57;7.43;;;;;;;-1.00;82.89;94590.41;5053931;28;20211;-64
2022/01/30 07:15:27;;;;;;;11.77;6.80;;;;;;;-0.99;83.42;94565.38;5053990;28;20185;-60
2022/01/30 07:17:52;;;;;;;14.13;6.90;;;;;;;-0.81;82.79;94578.78;5053003;28;20207;-59
2022/01/30 07:20:19;;;;;;;16.30;7.70;;;;;;;-0.87;83.11;94569.06;5053960;28;20238;-60
2022/01/30 07:22:44;;;;;;;13.57;7.40;;;;;;;-0.97;83.62;94563.63;5053849;28;20192;-63
2022/01/30 07:25:10;;;;;;;14.93;7.70;;;;;;;-0.76;81.60;94589.38;5053876;28;20533;-67
2022/01/30 07:27:36;;;;;;;14.93;6.83;;;;;;;-0.75;81.17;94603.47;5053778;28;20234;-60
2022/01/30 07:30:04;;;;;;;16.57;7.50;;;;;;;-0.76;81.77;94598.53;5019017;28;20198;-65
2022/01/30 07:32:30;;;;;;;15.97;7.17;;;;;;;-0.57;81.54;94620.16;5053746;28;20185;-63
2022/01/30 07:34:55;;;;;;;19.40;7.47;;;;;;;-0.38;80.70;94625.97;5053640;28;20191;-65
2022/01/30 07:37:21;;;;;;;17.03;7.90;;;;;;;-0.29;80.23;94630.59;5053423;28;20564;-65
2022/01/30 07:39:47;;;;;;;13.40;7.00;;;;;;;-0.17;79.65;94635.06;5053313;28;20220;-65
2022/01/30 07:42:13;;;;;;;16.63;7.83;;;;;;;-0.37;80.81;94621.81;5053295;28;20219;-62
2022/01/30 07:44:39;;;;;;;14.37;8.10;;;;;;;-0.43;82.04;94610.41;5053290;28;20580;-60
2022/01/30 07:47:05;;;;;;;13.50;6.83;;;;;;;-0.12;86.58;94504.94;5053189;28;20185;-65
2022/01/30 07:49:32;;;;;;;17.63;7.77;;;;;;;0.57;100.00;94540.81;5053372;28;20311;-59
2022/01/30 07:51:58;;;;;;;13.70;7.40;;;;;;;1.07;100.00;94544.16;5035199;28;20275;-59
2022/01/30 07:54:24;;;;;;;16.60;7.50;;;;;;;1.07;81.46;94688.50;5034903;28;20295;-59
2022/01/30 07:56:50;;;;;;;21.00;7.77;;;;;;;1.19;85.65;94566.06;5034971;28;20272;-66
2022/01/30 07:59:16;;;;;;;14.63;7.97;;;;;;;1.27;86.77;94615.75;5034530;28;20239;-65
2022/01/30 08:01:41;;;;;;;12.53;7.60;;;;;;;1.45;88.08;94554.75;5053211;28;20249;-58
2022/01/30 08:04:07;;;;;;;15.70;8.53;;;;;;;1.28;77.80;94655.75;5052909;28;20209;-61
2022/01/30 08:06:40;;;;;;;16.53;7.90;;;;;;;1.34;75.70;94667.13;5021126;28;20213;-61
2022/01/30 08:09:06;;;;;;;19.20;7.37;;;;;;;1.76;100.00;94497.13;5034923;28;20189;-58
2022/01/30 08:11:32;;;;;;;15.13;7.67;;;;;;;2.78;100.00;94514.88;5023113;23;20271;-61
2022/01/30 08:13:57;;;;;;;12.83;7.23;;;;;;;3.24;74.91;94720.59;5052482;28;20233;-64
2022/01/30 08:16:24;;;;;;;19.87;7.67;;;;;;;3.06;69.30;94716.56;5052973;28;20215;-67
2022/01/30 08:18:49;;;;;;;17.40;7.67;;;;;;;2.92;74.35;94631.16;5034595;28;20699;-60
2022/01/30 08:21:15;;;;;;;11.40;6.53;;;;;;;3.32;83.34;94504.94;5052697;28;20268;-57
2022/01/30 08:23:40;;;;;;;13.63;7.53;;;;;;;3.45;74.26;94645.72;5052276;28;20205;-61
2022/01/30 08:26:06;;;;;;;19.27;7.70;;;;;;;3.41;66.65;94750.59;5052402;28;20235;-63
2022/01/30 08:28:32;;;;;;;16.10;7.00;;;;;;;3.20;66.10;94739.22;5052003;28;20356;-59
2022/01/30 08:30:57;;;;;;;10.67;6.37;;;;;;;3.15;64.89;94732.84;5052696;28;20196;-59
2022/01/30 08:33:23;;;;;;;10.10;6.13;;;;;;;3.11;65.10;94731.41;5040584;23;20289;-62
2022/01/30 08:35:50;;;;;;;19.53;7.40;;;;;;;3.08;65.58;94719.00;5052722;28;20188;-66
2022/01/30 08:38:18;;;;;;;10.60;6.13;;;;;;;3.26;65.12;94721.31;5052479;28;20727;-69
2022/01/30 08:40:47;;;;;;;16.20;6.97;;;;;;;3.61;64.83;94726.06;5052279;28;20216;-62
2022/01/30 08:43:12;;;;;;;17.27;8.03;;;;;;;3.82;64.63;94733.19;5051703;28;20228;-61
2022/01/30 08:45:38;;;;;;;22.33;7.43;;;;;;;4.24;63.74;94747.50;5051975;28;20541;-62
2022/01/30 08:48:04;;;;;;;16.83;7.73;;;;;;;4.59;63.97;94743.69;5033656;28;20817;-63
2022/01/30 08:50:29;;;;;;;10.17;6.97;;;;;;;4.82;60.67;94797.72;5052080;28;20192;-62
2022/01/30 08:52:55;;;;;;;13.97;7.60;;;;;;;4.92;60.86;94797.06;5051703;28;20690;-62
2022/01/30 08:55:21;;;;;;;16.40;8.03;;;;;;;5.19;59.70;94808.88;5033780;28;20186;-62
2022/01/30 08:57:47;;;;;;;18.97;8.17;;;;;;;5.48;59.02;94813.72;5033593;28;20217;-62
2022/01/30 09:00:15;;;;;;;29.27;9.57;;;;;;;5.73;58.02;94828.94;5051456;28;20634;-61
2022/01/30 09:02:42;;;;;;;19.00;9.30;;;;;;;5.76;57.45;94838.00;5033350;28;20187;-62
2022/01/30 09:05:10;;;;;;;15.10;8.07;;;;;;;5.57;57.24;94830.81;5038268;23;20223;-62
2022/01/30 09:07:36;;;;;;;16.43;8.67;;;;;;;5.27;57.77;94806.69;5033567;28;20187;-66
2022/01/30 09:10:06;;;;;;;14.23;8.57;;;;;;;5.52;58.22;94801.72;5051435;28;20226;-62
2022/01/30 09:12:34;;;;;;;13.67;8.73;;;;;;;5.31;57.89;94793.00;5051841;28;20168;-62
2022/01/30 09:15:03;;;;;;;16.10;9.27;;;;;;;5.40;58.42;94782.34;5051781;28;20176;-62
2022/01/30 09:17:29;;;;;;;16.70;8.33;;;;;;;5.18;58.48;94765.22;5051332;28;20183;-62
2022/01/30 09:19:54;;;;;;;18.50;8.27;;;;;;;4.98;60.65;94716.09;5051436;28;20626;-66
2022/01/30 09:22:20;;;;;;;12.00;7.43;;;;;;;4.67;62.20;94683.63;5051291;28;20177;-67
2022/01/30 09:24:47;;;;;;;24.77;7.37;;;;;;;4.49;61.48;94697.31;5033634;28;20203;-59
2022/01/30 09:27:14;;;;;;;16.07;8.17;;;;;;;4.43;61.84;94690.16;5052017;28;20196;-65
2022/01/30 09:29:40;;;;;;;16.20;7.23;;;;;;;4.93;59.59;94745.78;5051777;28;20566;-65
2022/01/30 09:32:07;;;;;;;16.03;7.43;;;;;;;5.44;58.86;94753.50;5033939;28;20339;-59
2022/01/30 09:34:34;;;;;;;17.90;7.70;;;;;;;5.85;58.90;94751.72;5052074;28;20590;-67
2022/01/30 09:37:00;;;;;;;15.23;8.07;;;;;;;6.13;55.21;94824.72;5051561;28;20207;-68
2022/01/30 09:39:26;;;;;;;22.93;7.67;;;;;;;6.24;53.56;94852.56;5052262;28;20564;-62
2022/01/30 09:41:53;;;;;;;13.73;7.30;;;;;;;5.44;53.96;94791.31;5065801;23;20739;-64
2022/01/30 09:44:20;;;;;;;10.47;6.53;;;;;;;5.83;53.28;94786.28;5055075;28;20232;-59
2022/01/30 09:46:47;;;;;;;11.80;6.60;;;;;;;5.99;54.00;94771.00;5055304;28;20191;-67
2022/01/30 09:49:13;;;;;;;13.17;6.57;;;;;;;6.25;52.52;94805.44;5055275;28;20273;-59
2022/01/30 09:51:44;;;;;;;16.40;7.57;;;;;;;6.51;51.97;94802.00;5055096;28;20272;-68
2022/01/30 09:54:11;;;;;;;15.93;7.73;;;;;;;6.77;52.88;94768.22;5055115;28;20199;-58
2022/01/30 09:56:36;;;;;;;13.90;7.57;;;;;;;6.92;51.52;94791.63;5055331;28;20662;-64
2022/01/30 09:59:02;;;;;;;17.30;8.30;;;;;;;6.83;52.15;94760.22;5037150;28;20210;-63
2022/01/30 10:01:33;;;;;;;16.27;8.00;;;;;;;7.28;52.10;94734.28;5055312;28;20596;-63
2022/01/30 10:04:00;;;;;;;26.17;8.63;;;;;;;7.43;50.83;94766.06;5037384;28;20211;-68
2022/01/30 10:06:32;;;;;;;17.17;7.53;;;;;;;7.91;50.66;94799.72;5055503;28;20683;-64
2022/01/30 10:08:59;;;;;;;13.70;7.10;;;;;;;8.32;49.21;94810.19;5055229;28;20231;-62
2022/01/30 10:11:46;;;;;;;13.43;6.73;;;;;;;8.29;50.01;94746.31;5055152;28;20201;-59
2022/01/30 10:14:16;;;;;;;14.33;7.33;;;;;;;8.66;49.02;94777.31;5037514;28;20224;-69
2022/01/30 10:16:45;;;;;;;11.03;6.67;;;;;;;8.95;48.15;94784.31;5055553;28;20190;-63
2022/01/30 10:19:17;;;;;;;17.03;6.07;;;;;;;8.70;46.92;94802.31;5055088;28;20210;-67
2022/01/30 10:21:43;;;;;;;14.13;6.13;;;;;;;8.89;46.56;94809.31;5037001;28;20213;-65
2022/01/30 10:24:24;;;;;;;14.80;6.13;;;;;;;9.09;47.63;94785.81;5054972;28;20202;-62
2022/01/30 10:26:51;;;;;;;16.03;6.20;;;;;;;9.60;46.63;94829.16;5054616;28;20276;-64
2022/01/30 10:29:25;;;;;;;13.43;5.77;;;;;;;9.96;45.75;94832.16;5036872;28;20239;-61
2022/01/30 10:32:07;;;;;;;12.07;6.63;;;;;;;10.34;44.45;94848.66;5054634;28;20578;-65
2022/01/30 10:34:40;;;;;;;13.70;6.80;;;;;;;10.40;44.74;94825.28;5054511;28;20201;-64
2022/01/30 10:37:14;;;;;;;16.53;7.00;;;;;;;10.17;44.42;94806.81;5054679;28;20743;-67
2022/01/30 10:39:59;;;;;;;13.70;7.17;;;;;;;10.10;44.75;94775.19;5036329;28;20211;-68
2022/01/30 10:42:55;;;;;;;12.00;7.80;;;;;;;10.52;43.06;94798.88;5036542;28;20655;-64
2022/01/30 10:45:21;;;;;;;13.73;7.80;;;;;;;10.35;41.60;94789.25;5054120;28;20205;-61
2022/01/30 10:47:46;;;;;;;18.87;8.13;;;;;;;9.85;42.67;94738.28;5054284;28;20216;-68
2022/01/30 10:50:18;;;;;;;14.03;7.70;;;;;;;10.09;42.33;94738.81;5054477;28;20640;-66
2022/01/30 10:52:48;;;;;;;16.43;7.93;;;;;;;10.30;42.87;94695.66;5053054;28;20209;-69
2022/01/30 10:55:13;;;;;;;13.93;7.20;;;;;;;10.54;41.37;94728.38;5036448;28;20272;-59
2022/01/30 10:57:40;;;;;;;27.93;9.27;;;;;;;10.76;41.62;94725.66;5054138;28;20201;-62
2022/01/30 11:00:08;;;;;;;15.83;7.63;;;;;;;10.72;40.43;94749.72;5054265;28;20244;-60
2022/01/30 11:02:40;;;;;;;12.77;8.40;;;;;;;10.68;41.11;94717.84;5053889;28;20182;-64
2022/01/30 11:05:12;;;;;;;14.53;7.10;;;;;;;10.91;40.95;94714.97;5054115;28;20190;-64
2022/01/30 11:07:38;;;;;;;14.67;8.10;;;;;;;10.85;39.91;94740.09;5053929;28;20224;-60
2022/01/30 11:10:15;;;;;;;14.03;7.53;;;;;;;9.76;40.67;94703.44;5054191;28;20209;-64
2022/01/30 11:13:07;;;;;;;13.53;7.83;;;;;;;10.39;40.49;94694.06;5036058;28;20268;-62
2022/01/30 11:15:37;;;;;;;13.57;7.27;;;;;;;10.87;41.00;94664.50;5036172;28;20198;-62
2022/01/30 11:18:04;;;;;;;14.07;7.73;;;;;;;10.93;41.00;94644.44;5053646;28;20201;-63
2022/01/30 11:20:32;;;;;;;17.50;8.17;;;;;;;11.04;39.58;94681.66;5035617;28;20213;-63
2022/01/30 11:23:01;;;;;;;13.90;8.03;;;;;;;11.04;40.15;94647.78;5035512;28;20201;-62
2022/01/30 11:25:33;;;;;;;12.20;7.77;;;;;;;10.94;41.10;94613.00;5058563;23;20256;-59
2022/01/30 11:28:03;;;;;;;15.33;8.83;;;;;;;10.97;40.01;94662.78;5047268;28;20210;-64
2022/01/30 11:30:28;;;;;;;18.90;8.07;;;;;;;11.34;39.66;94671.38;5033476;28;20217;-63
2022/01/30 11:33:01;;;;;;;12.13;7.50;;;;;;;11.44;39.85;94645.91;5033335;28;20672;-63
2022/01/30 11:35:27;;;;;;;17.77;7.83;;;;;;;11.13;39.81;94652.88;5033963;28;20202;-64
2022/01/30 11:37:54;;;;;;;14.10;7.57;;;;;;;10.86;40.31;94647.66;5033265;28;20195;-59
2022/01/30 11:40:20;;;;;;;15.57;8.70;;;;;;;10.22;39.94;94633.69;5015679;28;20210;-58
2022/01/30 11:42:49;;;;;;;23.70;8.37;;;;;;;10.47;40.99;94610.34;5015372;28;20297;-59
2022/01/30 11:45:21;;;;;;;23.90;8.90;;;;;;;10.43;39.68;94639.50;5033547;28;20182;-65
2022/01/30 11:47:48;;;;;;;17.23;7.67;;;;;;;10.51;40.81;94604.06;5033040;28;20206;-64
2022/01/30 11:50:18;;;;;;;16.93;8.57;;;;;;;10.17;41.29;94580.72;5032996;28;20626;-64
2022/01/30 11:52:48;;;;;;;16.73;8.07;;;;;;;9.48;42.18;94556.91;5033183;28;20297;-59
2022/01/30 11:55:49;;;;;;;11.40;7.57;;;;;;;9.19;42.28;94538.19;5033532;28;20182;-59
2022/01/30 11:58:38;;;;;;;21.83;8.87;;;;;;;8.80;43.44;94485.63;5032960;28;20209;-59
2022/01/30 12:01:25;;;;;;;18.27;8.97;;;;;;;8.72;43.61;94498.91;5033077;28;20210;-64
2022/01/30 12:03:59;;;;;;;19.67;7.93;;;;;;;8.79;45.54;94420.63;5032698;28;20263;-63
2022/01/30 12:06:25;;;;;;;21.03;8.47;;;;;;;9.22;44.13;94449.16;5032935;28;20181;-63
2022/01/30 12:09:19;;;;;;;17.00;7.90;;;;;;;9.74;43.78;94496.34;5032584;28;20202;-59
2022/01/30 12:11:48;;;;;;;15.03;8.30;;;;;;;9.80;41.41;94559.31;5032868;28;20174;-66
2022/01/30 12:14:19;;;;;;;17.83;7.87;;;;;;;9.40;43.07;94511.06;5014888;28;20233;-63
2022/01/30 12:16:49;;;;;;;20.63;8.17;;;;;;;9.55;41.90;94542.78;5014908;28;20708;-66
2022/01/30 12:19:41;;;;;;;14.90;8.17;;;;;;;9.51;42.31;94523.66;5032525;28;20619;-63
2022/01/30 12:22:16;;;;;;;18.40;7.73;;;;;;;9.32;43.10;94488.88;5032698;28;20190;-62
2022/01/30 12:24:43;;;;;;;20.37;8.97;;;;;;;9.38;44.14;94462.19;5032606;28;20231;-64
2022/01/30 12:27:09;;;;;;;18.33;8.13;;;;;;;9.23;42.42;94481.22;5032444;28;20633;-60
2022/01/30 12:29:44;;;;;;;14.67;8.17;;;;;;;9.25;44.13;94434.47;5032529;28;20562;-63
2022/01/30 12:32:22;;;;;;;21.67;7.87;;;;;;;9.16;43.88;94455.53;5032424;28;20166;-63
2022/01/30 12:34:57;;;;;;;20.13;8.80;;;;;;;9.29;43.53;94438.38;5032458;28;20289;-63
2022/01/30 12:37:28;;;;;;;15.80;8.80;;;;;;;9.15;44.00;94435.41;5032276;28;20185;-64